Time;durP1;ratioP1;P1;durP2;ratioP2;P2;SDS_P1;SDS_P2;PMS_P1;PMS_P2;Temp;Humidity;BMP_temperature;BMP_pressure;BME280_temperature;BME280_humidity;BME280_pressure;Samples;Min_cycle;Max_cycle;Signal;HPM_P1;HPM_P2
2022/10/25 00:02:04;;;;;;;13.25;4.00;;;;;;;11.42;100.00;100994.63;6268361;22;20069;-83
2022/10/25 00:04:30;;;;;;;12.35;4.20;;;;;;;11.45;100.00;101004.22;6270775;22;20010;-86
2022/10/25 00:06:55;;;;;;;17.02;4.70;;;;;;;11.36;100.00;100992.25;6271152;22;20027;-84
2022/10/25 00:09:20;;;;;;;12.05;4.38;;;;;;;11.38;100.00;101001.03;6270788;22;20474;-85
2022/10/25 00:11:45;;;;;;;11.70;3.90;;;;;;;11.39;100.00;101005.44;6270655;22;20000;-85
2022/10/25 00:14:17;;;;;;;13.18;4.25;;;;;;;11.42;100.00;100999.94;6269964;22;20445;-85
2022/10/25 00:16:42;;;;;;;13.43;4.20;;;;;;;11.50;100.00;101010.22;6270054;22;20069;-84
2022/10/25 00:19:10;;;;;;;13.10;4.25;;;;;;;11.64;100.00;101014.81;6269293;22;20086;-83
2022/10/25 00:21:36;;;;;;;12.68;4.50;;;;;;;11.69;100.00;101018.09;6269015;22;20474;-85
2022/10/25 00:24:01;;;;;;;11.20;4.00;;;;;;;11.76;100.00;101023.97;6271634;22;20008;-85
2022/10/25 00:26:26;;;;;;;11.82;4.32;;;;;;;11.80;100.00;101013.06;6271241;22;20007;-85
2022/10/25 00:28:53;;;;;;;10.52;3.92;;;;;;;11.85;100.00;101032.38;6269594;22;20004;-86
2022/10/25 00:31:19;;;;;;;13.32;3.78;;;;;;;11.88;100.00;101026.88;6269732;22;20007;-86
2022/10/25 00:33:44;;;;;;;12.25;3.92;;;;;;;11.87;100.00;101027.84;6269287;22;20216;-85
2022/10/25 00:36:19;;;;;;;11.85;3.40;;;;;;;11.94;100.00;101031.88;6272090;22;20157;-84
2022/10/25 00:38:45;;;;;;;10.52;3.47;;;;;;;11.98;100.00;101026.38;6273730;22;20012;-84
2022/10/25 00:41:12;;;;;;;10.73;3.83;;;;;;;11.99;100.00;101036.09;6271976;22;20429;-85
2022/10/25 00:43:48;;;;;;;10.35;3.22;;;;;;;11.92;100.00;101016.91;6271348;22;20007;-83
2022/10/25 00:46:17;;;;;;;17.63;3.83;;;;;;;11.96;100.00;101030.00;6272394;22;20063;-83
2022/10/25 00:49:04;;;;;;;10.88;3.53;;;;;;;12.01;100.00;101031.56;6273060;22;20120;-84
2022/10/25 00:51:47;;;;;;;12.80;3.50;;;;;;;12.03;100.00;101035.84;6273347;22;20010;-85
2022/10/25 00:54:17;;;;;;;14.63;3.88;;;;;;;12.07;100.00;101044.56;6272615;22;19996;-85
2022/10/25 00:56:48;;;;;;;11.40;3.30;;;;;;;12.09;100.00;101040.03;6277303;22;20007;-85
2022/10/25 00:59:19;;;;;;;12.25;3.38;;;;;;;12.11;100.00;101038.13;6271616;22;20011;-85
2022/10/25 01:01:45;;;;;;;13.25;3.63;;;;;;;12.14;100.00;101038.81;6273793;22;20011;-85
2022/10/25 01:04:14;;;;;;;11.98;3.45;;;;;;;12.10;100.00;101031.91;6274203;22;20057;-83
2022/10/25 01:06:44;;;;;;;10.68;3.15;;;;;;;12.17;100.00;101044.00;6274388;22;20007;-84
2022/10/25 01:09:13;;;;;;;11.80;3.10;;;;;;;12.18;100.00;101042.19;6273457;22;20006;-85
2022/10/25 01:11:38;;;;;;;15.55;3.60;;;;;;;12.17;100.00;101048.47;6271521;22;20452;-83
2022/10/25 01:14:08;;;;;;;10.93;3.47;;;;;;;12.12;100.00;101040.72;6270680;22;20000;-84
2022/10/25 01:17:04;;;;;;;12.57;3.17;;;;;;;12.12;100.00;101039.81;6272933;22;20004;-84
2022/10/25 01:20:06;;;;;;;10.65;3.28;;;;;;;12.15;100.00;101053.00;6272950;22;20004;-84
2022/10/25 01:23:02;;;;;;;9.23;2.92;;;;;;;12.14;100.00;101051.31;6272439;22;20059;-85
2022/10/25 01:26:05;;;;;;;13.82;3.45;;;;;;;12.11;100.00;101054.13;6275806;22;20068;-84
2022/10/25 01:28:39;;;;;;;11.18;2.90;;;;;;;12.07;100.00;101048.09;6272320;22;20004;-83
2022/10/25 01:31:36;;;;;;;8.77;2.80;;;;;;;11.93;100.00;101056.84;6272273;22;20003;-83
2022/10/25 01:34:15;;;;;;;14.90;2.92;;;;;;;11.84;100.00;101044.00;6279712;22;20003;-85
2022/10/25 01:36:55;;;;;;;14.15;3.40;;;;;;;11.83;100.00;101055.63;6294093;22;20275;-84
2022/10/25 01:39:46;;;;;;;11.35;2.88;;;;;;;11.78;100.00;101057.59;6286096;22;19999;-85
2022/10/25 01:42:22;;;;;;;12.60;3.03;;;;;;;11.81;100.00;101061.91;6284727;22;20087;-84
2022/10/25 01:45:19;;;;;;;11.75;3.40;;;;;;;11.83;100.00;101060.94;6284372;22;20033;-84
2022/10/25 01:47:56;;;;;;;10.02;3.90;;;;;;;11.76;100.00;101043.50;6283566;22;20081;-83
2022/10/25 01:50:28;;;;;;;11.73;3.10;;;;;;;11.83;100.00;101057.38;6274742;22;20273;-85
2022/10/25 01:52:54;;;;;;;13.18;3.55;;;;;;;11.79;100.00;101053.13;6271338;22;19995;-84
2022/10/25 01:55:33;;;;;;;9.50;3.15;;;;;;;11.77;100.00;101061.22;6271640;22;20132;-84
2022/10/25 01:58:15;;;;;;;13.57;3.00;;;;;;;11.75;100.00;101065.78;6271472;22;20000;-84
2022/10/25 02:01:10;;;;;;;13.55;3.70;;;;;;;11.70;100.00;101054.47;6271275;22;20014;-84
2022/10/25 02:03:51;;;;;;;16.75;4.10;;;;;;;11.69;100.00;101061.63;6272491;22;20003;-84
2022/10/25 02:06:47;;;;;;;11.73;3.30;;;;;;;11.65;100.00;101067.19;6270442;22;20134;-84
2022/10/25 02:09:22;;;;;;;11.90;3.45;;;;;;;11.62;100.00;101072.66;6272871;22;20084;-84
2022/10/25 02:11:50;;;;;;;12.25;3.20;;;;;;;11.60;100.00;101071.91;6272401;22;20074;-84
2022/10/25 02:14:26;;;;;;;9.98;3.33;;;;;;;11.61;100.00;101078.94;6272730;22;19996;-82
2022/10/25 02:17:05;;;;;;;7.63;3.15;;;;;;;11.64;100.00;101086.78;6273514;22;20325;-82
2022/10/25 02:19:34;;;;;;;11.75;3.70;;;;;;;11.65;100.00;101076.03;6292998;22;19991;-83
2022/10/25 02:22:01;;;;;;;11.63;3.63;;;;;;;11.62;100.00;101070.00;6298801;22;20034;-84
2022/10/25 02:24:29;;;;;;;14.40;3.83;;;;;;;11.60;100.00;101074.56;6299911;22;20007;-85
2022/10/25 02:26:56;;;;;;;9.35;3.17;;;;;;;11.59;100.00;101073.72;6295042;22;20011;-85
2022/10/25 02:29:25;;;;;;;16.80;3.55;;;;;;;11.47;100.00;101075.19;6273715;22;20841;-84
2022/10/25 02:31:50;;;;;;;10.43;3.17;;;;;;;11.43;100.00;101076.28;6272790;22;20008;-85
2022/10/25 02:34:17;;;;;;;9.70;3.22;;;;;;;11.38;100.00;101072.13;6272606;22;20010;-86
2022/10/25 02:36:47;;;;;;;10.38;3.20;;;;;;;11.50;100.00;101086.66;6272971;22;20007;-85
2022/10/25 02:39:12;;;;;;;13.70;3.90;;;;;;;11.50;100.00;101091.97;6275694;22;20023;-86
2022/10/25 02:41:37;;;;;;;12.88;3.95;;;;;;;11.45;100.00;101078.88;6273705;22;20007;-85
2022/10/25 02:44:03;;;;;;;11.40;3.63;;;;;;;11.44;100.00;101066.47;6275554;22;20000;-82
2022/10/25 02:46:28;;;;;;;13.48;4.05;;;;;;;11.44;100.00;101078.00;6274666;22;20353;-84
2022/10/25 02:48:53;;;;;;;12.80;4.13;;;;;;;11.48;100.00;101076.03;6271938;22;20449;-84
2022/10/25 02:51:19;;;;;;;9.95;3.38;;;;;;;11.44;100.00;101078.00;6271926;22;20052;-84
2022/10/25 02:53:44;;;;;;;9.60;3.50;;;;;;;11.49;100.00;101080.44;6269953;22;20014;-85
2022/10/25 02:56:12;;;;;;;11.55;3.60;;;;;;;11.50;100.00;101087.50;6270992;22;20348;-86
2022/10/25 02:58:40;;;;;;;15.13;3.40;;;;;;;11.46;100.00;101093.94;6271646;22;20054;-84
2022/10/25 03:01:06;;;;;;;11.25;3.67;;;;;;;11.45;100.00;101092.19;6271895;22;20015;-84
2022/10/25 03:03:32;;;;;;;11.15;3.80;;;;;;;11.43;100.00;101089.59;6270035;22;20401;-84
2022/10/25 03:05:57;;;;;;;8.13;3.25;;;;;;;11.44;100.00;101098.47;6274248;22;20003;-84
2022/10/25 03:08:23;;;;;;;13.43;3.50;;;;;;;11.41;100.00;101102.16;6273493;22;20352;-85
2022/10/25 03:10:49;;;;;;;10.00;3.47;;;;;;;11.38;100.00;101102.31;6272621;22;20012;-85
2022/10/25 03:13:15;;;;;;;14.48;3.92;;;;;;;11.33;100.00;101098.13;6271662;22;20379;-85
2022/10/25 03:15:41;;;;;;;9.82;3.50;;;;;;;11.26;100.00;101097.59;6273214;22;20004;-85
2022/10/25 03:18:06;;;;;;;11.10;4.18;;;;;;;11.32;100.00;101107.94;6273336;22;20011;-86
2022/10/25 03:20:32;;;;;;;12.48;3.75;;;;;;;11.33;100.00;101101.69;6271682;22;19999;-85
2022/10/25 03:22:57;;;;;;;10.35;3.63;;;;;;;11.20;100.00;101088.13;6271802;22;20000;-85
2022/10/25 03:25:22;;;;;;;10.80;3.45;;;;;;;11.34;100.00;101107.88;6269008;22;20012;-84
2022/10/25 03:27:47;;;;;;;10.57;3.33;;;;;;;11.28;100.00;101094.84;6271319;22;20491;-86
2022/10/25 03:30:13;;;;;;;10.10;3.63;;;;;;;11.32;100.00;101115.94;6270439;22;20006;-82
2022/10/25 03:32:39;;;;;;;10.60;3.30;;;;;;;11.36;100.00;101124.63;6271441;22;20000;-83
2022/10/25 03:35:05;;;;;;;11.90;3.75;;;;;;;11.33;100.00;101125.66;6272529;22;20325;-84
2022/10/25 03:37:30;;;;;;;11.93;3.20;;;;;;;11.33;100.00;101131.00;6273375;22;20027;-84
2022/10/25 03:39:56;;;;;;;9.98;3.15;;;;;;;11.31;100.00;101124.88;6273361;22;20010;-83
2022/10/25 03:42:21;;;;;;;11.75;3.15;;;;;;;11.32;100.00;101117.72;6269699;22;20014;-84
2022/10/25 03:44:47;;;;;;;8.23;3.30;;;;;;;11.41;100.00;101135.94;6273195;22;20011;-85
2022/10/25 03:47:12;;;;;;;12.80;3.97;;;;;;;11.40;100.00;101129.75;6271388;22;20305;-85
2022/10/25 03:49:37;;;;;;;12.68;3.55;;;;;;;11.47;100.00;101146.31;6273149;22;20023;-86
2022/10/25 03:52:04;;;;;;;9.88;3.22;;;;;;;11.48;100.00;101156.00;6271883;22;20027;-85
2022/10/25 03:54:30;;;;;;;11.13;3.35;;;;;;;11.52;100.00;101156.72;6272762;22;20034;-84
2022/10/25 03:56:55;;;;;;;11.20;3.58;;;;;;;11.45;100.00;101149.06;6272381;22;20011;-84
2022/10/25 03:59:21;;;;;;;8.40;3.40;;;;;;;11.42;100.00;101143.00;6272452;22;20082;-86
2022/10/25 04:01:46;;;;;;;9.13;3.60;;;;;;;11.49;100.00;101163.06;6270901;22;20008;-86
2022/10/25 04:04:11;;;;;;;9.18;3.13;;;;;;;11.49;100.00;101157.72;6270861;22;20000;-86
2022/10/25 04:06:36;;;;;;;11.13;3.85;;;;;;;11.48;100.00;101170.19;6273209;22;20050;-85
2022/10/25 04:09:02;;;;;;;12.52;3.83;;;;;;;11.50;100.00;101163.97;6275407;22;20004;-83
2022/10/25 04:11:27;;;;;;;10.88;3.75;;;;;;;11.50;100.00;101162.16;6273687;22;20003;-82
2022/10/25 04:13:52;;;;;;;10.90;3.75;;;;;;;11.52;100.00;101157.59;6273793;22;20026;-84
2022/10/25 04:16:18;;;;;;;9.70;3.65;;;;;;;11.47;100.00;101155.16;6272644;22;20043;-85
2022/10/25 04:18:43;;;;;;;9.00;3.78;;;;;;;11.57;100.00;101163.53;6275000;22;20142;-84
2022/10/25 04:21:08;;;;;;;9.10;3.28;;;;;;;11.61;100.00;101170.44;6274573;22;20422;-84
2022/10/25 04:23:34;;;;;;;12.65;3.85;;;;;;;11.56;100.00;101158.31;6275773;22;20004;-85
2022/10/25 04:25:59;;;;;;;8.93;3.88;;;;;;;11.57;100.00;101168.88;6274365;22;20027;-85
2022/10/25 04:28:25;;;;;;;10.68;3.85;;;;;;;11.51;100.00;101152.34;6269814;22;20337;-85
2022/10/25 04:30:50;;;;;;;9.38;4.28;;;;;;;11.55;100.00;101168.09;6270958;22;20430;-85
2022/10/25 04:33:16;;;;;;;10.77;4.22;;;;;;;11.56;100.00;101174.31;6273059;22;20000;-84
2022/10/25 04:35:41;;;;;;;8.68;3.63;;;;;;;11.40;100.00;101152.88;6275457;22;20003;-86
2022/10/25 04:38:07;;;;;;;10.30;3.72;;;;;;;11.41;100.00;101174.13;6275272;22;20074;-85
2022/10/25 04:40:32;;;;;;;8.95;4.10;;;;;;;11.35;100.00;101177.06;6273200;22;20043;-84
2022/10/25 04:43:01;;;;;;;9.85;3.85;;;;;;;11.29;100.00;101172.06;6271914;22;19996;-83
2022/10/25 04:45:29;;;;;;;13.05;3.95;;;;;;;11.26;100.00;101174.88;6271895;22;20014;-83
2022/10/25 04:47:55;;;;;;;9.77;3.70;;;;;;;11.11;100.00;101154.28;6271323;22;20018;-83
2022/10/25 04:50:20;;;;;;;8.60;3.78;;;;;;;11.18;100.00;101182.38;6271402;22;20875;-84
2022/10/25 04:52:45;;;;;;;12.68;4.05;;;;;;;11.14;100.00;101178.97;6273057;22;20003;-85
2022/10/25 04:55:11;;;;;;;10.95;4.07;;;;;;;11.07;100.00;101174.00;6273372;22;20000;-85
2022/10/25 04:57:36;;;;;;;6.35;3.78;;;;;;;11.01;100.00;101169.00;6273194;22;20000;-84
2022/10/25 05:00:01;;;;;;;9.90;4.07;;;;;;;10.96;100.00;101170.06;6272833;22;20012;-85
2022/10/25 05:02:27;;;;;;;11.45;3.53;;;;;;;10.96;100.00;101179.88;6272940;22;20000;-85
2022/10/25 05:04:52;;;;;;;9.38;4.10;;;;;;;10.95;100.00;101184.34;6271636;22;20015;-85
2022/10/25 05:07:18;;;;;;;14.23;4.78;;;;;;;10.89;100.00;101173.09;6290369;22;19999;-83
2022/10/25 05:09:44;;;;;;;10.48;4.07;;;;;;;10.96;100.00;101186.06;6299454;22;20196;-85
2022/10/25 05:12:09;;;;;;;9.85;4.47;;;;;;;10.90;100.00;101180.13;6299314;22;20037;-84
2022/10/25 05:14:34;;;;;;;14.70;4.72;;;;;;;10.90;100.00;101180.13;6299488;22;19992;-85
2022/10/25 05:16:59;;;;;;;8.77;4.13;;;;;;;10.86;100.00;101189.19;6276200;22;20011;-85
2022/10/25 05:19:25;;;;;;;8.65;3.88;;;;;;;10.85;100.00;101192.81;6273701;22;20018;-85
2022/10/25 05:21:50;;;;;;;11.38;4.53;;;;;;;10.86;100.00;101203.38;6273600;22;20003;-84
2022/10/25 05:24:16;;;;;;;9.40;4.65;;;;;;;10.78;100.00;101197.53;6275837;22;20011;-84
2022/10/25 05:26:41;;;;;;;8.15;4.18;;;;;;;10.78;100.00;101197.53;6276590;22;20015;-84
2022/10/25 05:29:08;;;;;;;10.52;4.53;;;;;;;10.77;100.00;101205.59;6275768;22;20059;-83
2022/10/25 05:31:34;;;;;;;13.25;4.15;;;;;;;10.75;100.00;101210.16;6278465;22;20074;-88
2022/10/25 05:34:00;;;;;;;11.95;4.30;;;;;;;10.72;100.00;101216.47;6273069;22;20031;-83
2022/10/25 05:36:28;;;;;;;12.40;4.60;;;;;;;10.64;100.00;101202.63;6272603;22;20007;-82
2022/10/25 05:38:54;;;;;;;17.20;4.97;;;;;;;10.64;100.00;101210.63;6274971;22;20054;-84
2022/10/25 05:41:19;;;;;;;12.60;4.32;;;;;;;10.64;100.00;101210.63;6273250;22;20479;-86
2022/10/25 05:43:46;;;;;;;11.88;4.45;;;;;;;10.56;100.00;101202.97;6271254;22;20007;-85
2022/10/25 05:46:14;;;;;;;14.27;4.97;;;;;;;10.61;100.00;101213.41;6272266;22;20461;-86
2022/10/25 05:48:40;;;;;;;13.98;5.07;;;;;;;10.62;100.00;101223.16;6272211;22;20003;-85
2022/10/25 05:51:28;;;;;;;12.27;4.80;;;;;;;10.59;100.00;101226.81;6269033;22;20444;-85
2022/10/25 05:53:55;;;;;;;11.65;5.10;;;;;;;10.56;100.00;101223.41;6271947;22;20022;-85
2022/10/25 05:56:22;;;;;;;12.25;5.15;;;;;;;10.58;100.00;101226.88;6271275;22;20007;-86
2022/10/25 05:58:48;;;;;;;13.73;4.90;;;;;;;10.53;100.00;101227.06;6270727;22;20012;-85
2022/10/25 06:01:17;;;;;;;17.63;5.25;;;;;;;10.56;100.00;101236.72;6270821;22;20099;-85
2022/10/25 06:03:43;;;;;;;10.25;4.70;;;;;;;10.51;100.00;101239.59;6274326;22;20038;-85
2022/10/25 06:06:10;;;;;;;11.30;4.95;;;;;;;10.50;100.00;101239.69;6274042;22;20051;-85
2022/10/25 06:08:36;;;;;;;11.68;5.03;;;;;;;10.55;100.00;101240.31;6274027;22;20023;-86
2022/10/25 06:11:05;;;;;;;13.70;5.63;;;;;;;10.54;100.00;101242.13;6272927;22;20004;-85
2022/10/25 06:13:30;;;;;;;10.93;5.95;;;;;;;10.53;100.00;101242.19;6271349;22;19996;-84
2022/10/25 06:15:55;;;;;;;15.80;7.65;;;;;;;10.58;100.00;101248.19;6271465;22;20004;-84
2022/10/25 06:18:21;;;;;;;13.93;6.22;;;;;;;10.63;100.00;101251.50;6271131;22;20364;-85
2022/10/25 06:20:46;;;;;;;14.48;6.45;;;;;;;10.70;100.00;101253.81;6271645;22;20097;-88
2022/10/25 06:23:11;;;;;;;13.25;6.40;;;;;;;10.83;100.00;101262.13;6270428;22;20053;-84
2022/10/25 06:25:37;;;;;;;13.00;6.15;;;;;;;10.89;100.00;101256.50;6271844;22;20010;-84
2022/10/25 06:28:02;;;;;;;14.48;5.95;;;;;;;10.97;100.00;101267.69;6270930;22;20000;-85
2022/10/25 06:30:28;;;;;;;12.38;5.88;;;;;;;11.04;100.00;101272.75;6270728;22;20036;-85
2022/10/25 06:32:53;;;;;;;16.08;6.45;;;;;;;11.05;100.00;101270.00;6273932;22;20022;-84
2022/10/25 06:35:19;;;;;;;14.25;6.88;;;;;;;11.13;100.00;101273.16;6273396;22;20078;-82
2022/10/25 06:37:44;;;;;;;12.65;6.05;;;;;;;11.13;100.00;101269.63;6283251;22;20027;-85
2022/10/25 06:40:10;;;;;;;12.07;6.15;;;;;;;11.17;100.00;101273.91;6278137;22;20009;-84
2022/10/25 06:42:35;;;;;;;12.75;6.32;;;;;;;11.18;100.00;101280.94;6278064;22;20031;-85
2022/10/25 06:45:00;;;;;;;11.43;5.70;;;;;;;11.14;100.00;101279.34;6299252;22;20002;-85
2022/10/25 06:47:26;;;;;;;9.18;6.22;;;;;;;11.08;100.00;101279.66;6293072;22;20008;-85
2022/10/25 06:49:51;;;;;;;11.82;5.80;;;;;;;11.06;100.00;101279.69;6277680;22;20015;-85
2022/10/25 06:52:16;;;;;;;14.70;7.00;;;;;;;11.08;100.00;101285.84;6274995;22;20104;-85
2022/10/25 06:54:41;;;;;;;11.40;6.18;;;;;;;11.08;100.00;101284.97;6275493;22;20159;-85
2022/10/25 06:57:07;;;;;;;15.93;6.57;;;;;;;11.18;100.00;101288.94;6272195;22;20003;-85
2022/10/25 06:59:32;;;;;;;17.48;7.10;;;;;;;11.25;100.00;101293.06;6271339;22;20019;-85
2022/10/25 07:01:57;;;;;;;13.05;6.97;;;;;;;11.34;100.00;101303.28;6271667;22;20507;-85
2022/10/25 07:04:23;;;;;;;14.60;6.55;;;;;;;11.42;100.00;101305.59;6270386;22;20007;-85
2022/10/25 07:06:48;;;;;;;16.17;9.02;;;;;;;11.47;100.00;101300.91;6270994;22;20008;-85
2022/10/25 07:09:14;;;;;;;16.38;6.22;;;;;;;11.45;100.00;101295.66;6270189;22;20079;-83
2022/10/25 07:11:40;;;;;;;14.05;6.05;;;;;;;11.56;100.00;101310.25;6271292;22;20003;-85
2022/10/25 07:14:07;;;;;;;13.82;6.38;;;;;;;11.54;100.00;101314.81;6272580;22;20007;-87
2022/10/25 07:16:32;;;;;;;10.93;5.75;;;;;;;11.58;100.00;101308.38;6271641;22;20007;-83
2022/10/25 07:19:02;;;;;;;11.23;5.40;;;;;;;11.62;100.00;101318.84;6272187;22;20026;-84
2022/10/25 07:21:29;;;;;;;17.00;7.80;;;;;;;11.64;100.00;101316.97;6270585;22;20004;-84
2022/10/25 07:23:54;;;;;;;13.27;5.82;;;;;;;11.63;100.00;101311.72;6270242;22;20004;-83
2022/10/25 07:26:23;;;;;;;12.18;6.35;;;;;;;11.59;100.00;101323.44;6269581;22;20004;-83
2022/10/25 07:28:50;;;;;;;16.75;6.68;;;;;;;11.50;100.00;101313.22;6269440;22;20008;-84
2022/10/25 07:31:22;;;;;;;12.98;6.40;;;;;;;11.50;100.00;101334.56;6268268;22;20000;-84
2022/10/25 07:33:48;;;;;;;10.27;5.95;;;;;;;11.43;100.00;101321.50;6269225;22;19999;-83
2022/10/25 07:36:14;;;;;;;13.45;6.28;;;;;;;11.39;100.00;101327.91;6270010;22;20066;-84
2022/10/25 07:38:39;;;;;;;13.25;6.32;;;;;;;11.44;100.00;101336.56;6270521;22;20410;-84
2022/10/25 07:41:05;;;;;;;13.07;6.10;;;;;;;11.55;100.00;101341.38;6269657;22;20070;-84
2022/10/25 07:43:30;;;;;;;13.65;6.50;;;;;;;11.67;100.00;101337.28;6270158;22;20373;-84
2022/10/25 07:45:56;;;;;;;20.63;6.88;;;;;;;11.85;100.00;101340.91;6269995;22;20061;-81
2022/10/25 07:48:22;;;;;;;11.18;6.07;;;;;;;12.07;100.00;101348.72;6270664;22;20007;-83
2022/10/25 07:50:47;;;;;;;13.57;5.55;;;;;;;12.26;100.00;101338.00;6269903;22;20000;-84
2022/10/25 07:53:12;;;;;;;14.15;5.95;;;;;;;12.51;100.00;101346.50;6282209;22;20008;-83
2022/10/25 07:55:38;;;;;;;14.00;5.38;;;;;;;12.57;100.00;101351.53;6292415;22;20039;-84
2022/10/25 07:58:05;;;;;;;10.50;5.20;;;;;;;12.54;100.00;101345.47;6294108;22;20081;-83
2022/10/25 08:00:31;;;;;;;10.43;5.05;;;;;;;12.60;100.00;101350.50;6293421;22;20026;-83
2022/10/25 08:02:57;;;;;;;8.52;4.60;;;;;;;12.55;100.00;101352.56;6271458;22;20310;-81
2022/10/25 08:05:22;;;;;;;16.20;5.18;;;;;;;12.55;100.00;101358.75;6270243;22;20087;-82
2022/10/25 08:07:48;;;;;;;9.73;4.95;;;;;;;12.50;100.00;101363.47;6269367;22;20066;-83
2022/10/25 08:10:13;;;;;;;9.80;4.88;;;;;;;12.52;100.00;101364.25;6268734;22;20437;-83
2022/10/25 08:12:39;;;;;;;11.20;5.43;;;;;;;12.64;100.00;101368.09;6268697;22;20418;-83
2022/10/25 08:15:05;;;;;;;10.82;5.13;;;;;;;12.71;100.00;101374.88;6270452;22;20015;-82
2022/10/25 08:17:30;;;;;;;12.98;5.25;;;;;;;12.70;100.00;101362.44;6271260;22;20004;-82
2022/10/25 08:19:55;;;;;;;12.57;5.30;;;;;;;12.72;100.00;101365.91;6268790;22;20004;-81
2022/10/25 08:22:20;;;;;;;10.65;5.05;;;;;;;12.74;100.00;101377.38;6269162;22;19999;-82
2022/10/25 08:24:46;;;;;;;11.35;4.72;;;;;;;12.72;100.00;101371.25;6269277;22;20053;-92
2022/10/25 08:27:11;;;;;;;11.00;4.53;;;;;;;12.74;100.00;101374.69;6271434;22;20030;-87
2022/10/25 08:29:36;;;;;;;10.90;5.07;;;;;;;12.77;100.00;101377.22;6271517;22;20010;-82
2022/10/25 08:32:02;;;;;;;10.23;5.38;;;;;;;12.81;100.00;101376.13;6280164;22;20003;-92
2022/10/25 08:34:27;;;;;;;8.75;4.63;;;;;;;12.80;100.00;101373.53;6288625;22;20039;-95
2022/10/25 08:36:52;;;;;;;11.77;5.05;;;;;;;12.83;100.00;101381.38;6283994;22;20310;-96
2022/10/25 08:39:17;;;;;;;11.82;4.72;;;;;;;12.85;100.00;101382.16;6274743;22;20012;-82
2022/10/25 08:41:53;;;;;;;12.45;5.30;;;;;;;12.95;100.00;101383.41;6270086;22;20035;-81
2022/10/25 08:44:42;;;;;;;11.02;5.07;;;;;;;13.01;100.00;101387.59;6268566;22;19995;-81
2022/10/25 08:47:32;;;;;;;11.13;4.90;;;;;;;12.93;100.00;101367.47;6270812;22;20007;-82
2022/10/25 08:50:04;;;;;;;11.45;4.72;;;;;;;13.06;100.00;101385.53;6269806;22;19999;-82
2022/10/25 08:52:38;;;;;;;9.30;4.60;;;;;;;13.08;100.00;101372.94;6270404;22;20003;-82
2022/10/25 08:55:10;;;;;;;10.95;4.43;;;;;;;13.17;100.00;101385.84;6271633;22;20087;-81
2022/10/25 08:57:40;;;;;;;13.20;4.90;;;;;;;13.17;100.00;101388.50;6273212;22;20432;-82
2022/10/25 09:00:12;;;;;;;11.70;4.35;;;;;;;13.19;100.00;101387.47;6271601;22;20016;-83
2022/10/25 09:02:45;;;;;;;10.18;4.60;;;;;;;13.31;100.00;101393.16;6274823;22;20099;-83
2022/10/25 09:05:49;;;;;;;7.72;4.30;;;;;;;13.27;100.00;101381.75;6273873;22;20531;-81
2022/10/25 09:08:14;;;;;;;11.18;5.05;;;;;;;13.31;100.00;101390.47;6271790;22;20019;-82
2022/10/25 09:10:42;;;;;;;11.23;4.05;;;;;;;13.45;100.00;101399.47;6271588;22;20344;-82
2022/10/25 09:13:28;;;;;;;9.07;4.10;;;;;;;13.62;100.00;101397.69;6271890;22;19996;-81
2022/10/25 09:16:06;;;;;;;10.43;4.32;;;;;;;13.79;100.00;101397.59;6272427;22;20075;-83
2022/10/25 09:18:41;;;;;;;10.73;4.30;;;;;;;13.88;100.00;101405.16;6271216;22;20012;-82
2022/10/25 09:21:15;;;;;;;8.30;3.78;;;;;;;14.09;100.00;101407.56;6270931;22;20012;-82
2022/10/25 09:23:45;;;;;;;9.82;3.95;;;;;;;14.25;100.00;101413.75;6271258;22;20008;-82
2022/10/25 09:26:20;;;;;;;8.00;3.70;;;;;;;14.45;100.00;101415.28;6269994;22;20003;-82
2022/10/25 09:29:11;;;;;;;9.32;3.15;;;;;;;14.59;98.95;101417.19;6271266;22;20004;-82
2022/10/25 09:31:43;;;;;;;9.43;3.45;;;;;;;14.45;97.75;101404.59;6267655;22;20015;-82
2022/10/25 09:34:10;;;;;;;10.15;3.20;;;;;;;14.41;98.41;101424.47;6272131;22;20011;-82
2022/10/25 09:36:47;;;;;;;10.35;3.33;;;;;;;14.38;97.81;101419.28;6273963;22;20058;-83
2022/10/25 09:39:43;;;;;;;11.05;3.03;;;;;;;14.33;100.00;101429.38;6276037;22;20090;-82
2022/10/25 09:42:29;;;;;;;9.90;3.50;;;;;;;14.35;99.66;101422.16;6274462;22;20061;-81
2022/10/25 09:45:00;;;;;;;7.13;3.05;;;;;;;14.36;98.19;101426.53;6276813;22;20452;-81
2022/10/25 09:47:38;;;;;;;10.18;4.15;;;;;;;14.23;97.72;101433.56;6273969;22;20000;-80
2022/10/25 09:50:10;;;;;;;8.07;3.50;;;;;;;14.06;98.96;101426.47;6270835;22;20015;-81
2022/10/25 09:52:44;;;;;;;8.90;3.65;;;;;;;14.09;99.80;101427.16;6270883;22;19995;-82
2022/10/25 09:55:28;;;;;;;9.65;3.35;;;;;;;14.28;99.91;101431.47;6269876;22;20007;-82
2022/10/25 09:57:54;;;;;;;14.60;3.63;;;;;;;14.38;99.95;101428.19;6271285;22;20008;-82
2022/10/25 10:00:19;;;;;;;7.93;3.00;;;;;;;14.45;97.97;101434.91;6274174;22;20018;-83
2022/10/25 10:02:45;;;;;;;11.05;3.20;;;;;;;14.43;97.39;101427.94;6274917;22;20057;-83
2022/10/25 10:05:19;;;;;;;13.82;3.30;;;;;;;14.58;97.59;101443.13;6274323;22;20342;-81
2022/10/25 10:07:45;;;;;;;9.98;3.25;;;;;;;14.78;96.16;101436.59;6273157;22;20079;-81
2022/10/25 10:10:18;;;;;;;6.68;3.00;;;;;;;14.97;93.93;101438.22;6270692;22;20027;-82
2022/10/25 10:12:52;;;;;;;9.43;3.60;;;;;;;14.98;94.38;101450.66;6271452;22;20422;-82
2022/10/25 10:15:30;;;;;;;9.55;3.53;;;;;;;14.89;93.75;101450.25;6273426;22;20015;-83
2022/10/25 10:18:25;;;;;;;5.47;3.45;;;;;;;14.87;94.31;101449.47;6272085;22;20022;-83
2022/10/25 10:21:03;;;;;;;7.78;3.83;;;;;;;14.79;93.88;101449.03;6272388;22;20364;-82
2022/10/25 10:23:32;;;;;;;8.95;3.33;;;;;;;14.60;94.14;101456.44;6273635;22;20401;-82
2022/10/25 10:26:09;;;;;;;10.10;3.78;;;;;;;14.53;95.41;101452.38;6272207;22;19999;-82
2022/10/25 10:28:34;;;;;;;9.38;4.10;;;;;;;14.51;95.95;101447.13;6271835;22;20011;-81
2022/10/25 10:31:04;;;;;;;6.93;3.45;;;;;;;14.41;94.42;101446.75;6273552;22;20516;-83
2022/10/25 10:33:31;;;;;;;8.32;3.63;;;;;;;14.38;94.72;101449.63;6273024;22;20022;-82
2022/10/25 10:36:27;;;;;;;9.13;3.47;;;;;;;14.47;95.10;101455.41;6273192;22;20003;-81
2022/10/25 10:38:53;;;;;;;6.60;3.17;;;;;;;14.41;95.87;101457.47;6270841;22;20317;-81
2022/10/25 10:41:23;;;;;;;7.78;3.17;;;;;;;14.33;95.10;101457.03;6270718;22;20053;-83
2022/10/25 10:43:49;;;;;;;7.65;3.17;;;;;;;14.29;95.64;101455.47;6274130;22;19999;-82
2022/10/25 10:46:18;;;;;;;9.98;3.63;;;;;;;14.27;95.97;101445.81;6275928;22;20004;-82
2022/10/25 10:48:51;;;;;;;8.02;3.50;;;;;;;14.26;95.97;101466.38;6276688;22;20019;-81
2022/10/25 10:51:19;;;;;;;10.52;3.58;;;;;;;14.31;96.10;101468.78;6277647;22;20008;-81
2022/10/25 10:53:45;;;;;;;9.43;3.50;;;;;;;14.26;95.57;101463.69;6271734;22;20094;-81
2022/10/25 10:56:19;;;;;;;9.90;3.90;;;;;;;14.18;97.17;101469.47;6269617;22;20038;-80
2022/10/25 10:58:48;;;;;;;8.15;4.10;;;;;;;14.09;97.36;101463.78;6269439;22;20007;-82
2022/10/25 11:01:27;;;;;;;10.02;4.07;;;;;;;14.15;98.13;101458.94;6269858;22;20022;-81
2022/10/25 11:03:56;;;;;;;9.55;4.38;;;;;;;14.52;96.62;101464.06;6268350;22;20090;-82
2022/10/25 11:06:28;;;;;;;11.57;4.45;;;;;;;14.76;95.29;101465.31;6270208;22;20068;-83
2022/10/25 11:09:15;;;;;;;6.78;4.07;;;;;;;14.92;94.78;101471.50;6267776;22;20007;-82
2022/10/25 11:11:41;;;;;;;8.95;4.63;;;;;;;15.38;93.34;101466.06;6269575;22;20011;-82
2022/10/25 11:14:15;;;;;;;8.43;3.88;;;;;;;16.03;90.33;101464.75;6269588;22;20010;-82
2022/10/25 11:16:53;;;;;;;9.70;3.80;;;;;;;16.41;86.23;101463.13;6270679;22;20004;-83
2022/10/25 11:19:39;;;;;;;8.93;4.30;;;;;;;16.41;86.19;101460.44;6269545;22;19999;-83
2022/10/25 11:22:35;;;;;;;7.95;3.60;;;;;;;16.19;88.45;101457.44;6268146;22;20100;-82
2022/10/25 11:25:30;;;;;;;6.47;3.50;;;;;;;16.29;87.70;101461.25;6269778;22;20438;-81